Time;durP1;ratioP1;P1;durP2;ratioP2;P2;SDS_P1;SDS_P2;PMS_P1;PMS_P2;Temp;Humidity;BMP_temperature;BMP_pressure;BME280_temperature;BME280_humidity;BME280_pressure;Samples;Min_cycle;Max_cycle;Signal;HPM_P1;HPM_P2
2022/01/11 00:00:24;;;;;;;0.30;0.10;;;-0.10;99.90;;;;;;5089038;28;20230;-84
2022/01/11 00:02:53;;;;;;;0.30;0.10;;;-0.20;99.90;;;;;;5090023;28;20211;-84
2022/01/11 00:05:24;;;;;;;0.30;0.20;;;-0.20;99.90;;;;;;5089822;28;20203;-84
2022/01/11 00:07:55;;;;;;;0.30;0.10;;;-0.20;99.90;;;;;;5088946;28;20235;-84
2022/01/11 00:10:27;;;;;;;0.40;0.40;;;-0.10;99.90;;;;;;5086475;28;20196;-85
2022/01/11 00:12:55;;;;;;;0.30;0.10;;;-0.10;99.90;;;;;;5090794;28;20252;-84
2022/01/11 00:15:23;;;;;;;0.30;0.10;;;-0.10;99.90;;;;;;5086855;28;20252;-86
2022/01/11 00:17:50;;;;;;;0.40;0.40;;;0.00;99.90;;;;;;5090004;28;20495;-84
2022/01/11 00:20:20;;;;;;;0.30;0.10;;;0.00;99.90;;;;;;5090447;28;20240;-85
2022/01/11 00:24:27;;;;;;;0.30;0.10;;;0.00;99.90;;;;;;5091286;28;20327;-84
2022/01/11 00:25:46;;;;;;;0.30;0.10;;;0.10;99.90;;;;;;5086117;28;20214;-84
2022/01/11 00:28:17;;;;;;;0.32;0.25;;;0.10;99.90;;;;;;5091081;28;20219;-84
2022/01/11 00:30:46;;;;;;;0.88;0.63;;;0.20;99.90;;;;;;5086132;28;20261;-84
2022/01/11 00:33:17;;;;;;;0.30;0.10;;;0.30;99.90;;;;;;5088452;28;20698;-85
2022/01/11 00:35:48;;;;;;;3.67;0.90;;;0.30;99.90;;;;;;5087797;28;20226;-84
2022/01/11 00:38:17;;;;;;;0.65;0.65;;;0.40;99.90;;;;;;5089504;28;20220;-84
2022/01/11 00:40:46;;;;;;;0.30;0.10;;;0.30;99.90;;;;;;5088003;28;20627;-86
2022/01/11 00:43:15;;;;;;;0.30;0.20;;;0.30;99.90;;;;;;5090171;28;20236;-84
2022/01/11 00:45:43;;;;;;;0.30;0.10;;;0.30;99.90;;;;;;5086666;28;20251;-87
2022/01/11 00:48:10;;;;;;;0.30;0.10;;;0.20;99.90;;;;;;5090305;28;20243;-84
2022/01/11 00:50:37;;;;;;;0.30;0.10;;;0.30;99.90;;;;;;5087477;28;20260;-87
2022/01/11 00:53:04;;;;;;;0.30;0.10;;;0.20;99.90;;;;;;5090960;28;20261;-85
2022/01/11 00:55:32;;;;;;;0.30;0.10;;;0.30;99.90;;;;;;5086293;28;20260;-84
2022/01/11 00:57:59;;;;;;;0.40;0.25;;;0.30;99.90;;;;;;5085528;28;20231;-84
2022/01/11 01:00:27;;;;;;;0.30;0.20;;;0.30;99.90;;;;;;5089239;28;20219;-87
2022/01/11 01:02:54;;;;;;;0.30;0.20;;;0.40;99.90;;;;;;5085854;28;20211;-83
2022/01/11 01:05:21;;;;;;;0.55;0.55;;;0.40;99.90;;;;;;5086297;28;20236;-84
2022/01/11 01:07:48;;;;;;;0.30;0.10;;;0.40;99.90;;;;;;5098131;28;20262;-84
2022/01/11 01:10:24;;;;;;;0.30;0.10;;;0.40;99.90;;;;;;5113803;28;20187;-85
2022/01/11 01:12:52;;;;;;;0.30;0.10;;;0.40;99.90;;;;;;5106498;28;20214;-84
2022/01/11 01:15:19;;;;;;;0.30;0.10;;;0.40;99.90;;;;;;5105929;28;20208;-85
2022/01/11 01:17:48;;;;;;;0.55;0.55;;;0.40;99.90;;;;;;5089961;28;20195;-84
2022/01/11 01:20:15;;;;;;;0.30;0.10;;;0.40;99.90;;;;;;5080178;28;20602;-84
2022/01/11 01:22:42;;;;;;;0.30;0.10;;;0.40;99.90;;;;;;5086760;28;20338;-84
2022/01/11 01:25:10;;;;;;;0.30;0.10;;;0.50;99.90;;;;;;5085802;28;20266;-84
2022/01/11 01:27:37;;;;;;;0.30;0.20;;;0.50;99.90;;;;;;5082162;28;20242;-86
2022/01/11 01:30:06;;;;;;;0.30;0.10;;;0.50;99.90;;;;;;5087320;28;20253;-86
2022/01/11 01:32:33;;;;;;;0.30;0.10;;;0.50;99.90;;;;;;5088494;28;20650;-87
2022/01/11 01:35:04;;;;;;;0.30;0.10;;;0.50;99.90;;;;;;5086746;28;20251;-84
2022/01/11 01:37:32;;;;;;;0.30;0.10;;;0.60;99.90;;;;;;5089282;28;20364;-86
2022/01/11 01:39:59;;;;;;;0.75;0.75;;;0.60;99.90;;;;;;5089113;28;20258;-85
2022/01/11 01:42:30;;;;;;;0.38;0.32;;;0.60;99.90;;;;;;5087868;28;20574;-87
2022/01/11 01:44:59;;;;;;;0.30;0.10;;;0.60;99.90;;;;;;5089141;28;20231;-84
2022/01/11 01:47:27;;;;;;;0.30;0.10;;;0.60;99.90;;;;;;5086493;28;20190;-84
2022/01/11 01:49:54;;;;;;;0.30;0.10;;;0.60;99.90;;;;;;5087246;28;20247;-87
2022/01/11 01:52:23;;;;;;;0.30;0.10;;;0.60;99.90;;;;;;5089679;28;20444;-84
2022/01/11 01:54:51;;;;;;;0.30;0.20;;;0.60;99.90;;;;;;5088681;28;20499;-84
2022/01/11 01:57:18;;;;;;;0.70;0.70;;;0.70;99.90;;;;;;5086896;28;20771;-86
2022/01/11 01:59:46;;;;;;;0.30;0.10;;;0.60;99.90;;;;;;5088435;28;20510;-85
2022/01/11 02:02:13;;;;;;;1.50;1.23;;;0.60;99.90;;;;;;5093960;28;20482;-83
2022/01/11 02:04:41;;;;;;;0.30;0.10;;;0.70;99.90;;;;;;5094018;28;20501;-84
2022/01/11 02:07:08;;;;;;;0.67;0.30;;;0.70;99.90;;;;;;5090091;28;20246;-84
2022/01/11 02:09:36;;;;;;;0.30;0.10;;;0.70;99.90;;;;;;5091995;28;20511;-84
2022/01/11 02:12:03;;;;;;;0.30;0.10;;;0.60;99.90;;;;;;5089900;28;20635;-83
2022/01/11 02:14:30;;;;;;;0.30;0.10;;;0.70;99.90;;;;;;5093241;28;20450;-84
2022/01/11 02:17:00;;;;;;;0.30;0.10;;;0.70;99.90;;;;;;5087607;28;20456;-84
2022/01/11 02:19:27;;;;;;;0.33;0.17;;;0.80;99.90;;;;;;5087090;28;20283;-84
2022/01/11 02:21:55;;;;;;;0.30;0.10;;;0.80;99.90;;;;;;5090575;28;20486;-84
2022/01/11 02:24:22;;;;;;;0.30;0.10;;;1.00;99.90;;;;;;5087903;28;20204;-85
2022/01/11 02:26:50;;;;;;;0.30;0.10;;;1.00;99.90;;;;;;5088242;28;20458;-84
2022/01/11 02:29:19;;;;;;;0.30;0.20;;;0.90;99.90;;;;;;5087294;28;20282;-85
2022/01/11 02:31:46;;;;;;;0.30;0.10;;;1.00;99.90;;;;;;5085269;28;20476;-84
2022/01/11 02:34:13;;;;;;;0.30;0.10;;;1.00;99.90;;;;;;5088029;28;20589;-84
2022/01/11 02:36:40;;;;;;;0.30;0.10;;;1.00;99.90;;;;;;5088498;28;20458;-84
2022/01/11 02:39:09;;;;;;;0.30;0.10;;;0.90;99.90;;;;;;5088085;28;20445;-84
2022/01/11 02:41:37;;;;;;;0.30;0.10;;;0.90;99.90;;;;;;5086933;28;20513;-84
2022/01/11 02:44:04;;;;;;;0.70;0.50;;;0.80;99.90;;;;;;5113502;28;20418;-85
2022/01/11 02:46:31;;;;;;;0.30;0.10;;;0.70;99.90;;;;;;5103892;28;20199;-84
2022/01/11 02:48:58;;;;;;;0.30;0.20;;;0.70;99.90;;;;;;5104187;28;20232;-84
2022/01/11 02:51:26;;;;;;;0.30;0.10;;;0.70;99.90;;;;;;5095553;28;20715;-84
2022/01/11 02:53:55;;;;;;;0.30;0.10;;;0.70;99.90;;;;;;5085992;28;20207;-85
2022/01/11 02:56:24;;;;;;;0.30;0.20;;;0.80;99.90;;;;;;5084174;28;20200;-84
2022/01/11 02:58:51;;;;;;;0.30;0.10;;;0.80;99.90;;;;;;5087706;28;20212;-86
2022/01/11 03:01:19;;;;;;;0.30;0.10;;;0.80;99.90;;;;;;5086573;28;20292;-87
2022/01/11 03:03:47;;;;;;;0.40;0.35;;;0.80;99.90;;;;;;5088017;28;20206;-84
2022/01/11 03:06:14;;;;;;;0.30;0.10;;;0.90;99.90;;;;;;5090150;28;20200;-86
2022/01/11 03:08:43;;;;;;;0.40;0.30;;;0.90;99.90;;;;;;5092027;28;20196;-84
2022/01/11 03:11:10;;;;;;;0.30;0.10;;;1.00;99.90;;;;;;5089567;28;20960;-84
2022/01/11 03:13:41;;;;;;;0.57;0.47;;;0.90;99.90;;;;;;5092177;28;20200;-84
2022/01/11 03:16:08;;;;;;;0.30;0.10;;;0.90;99.90;;;;;;5090870;28;20488;-87
2022/01/11 03:18:35;;;;;;;0.47;0.47;;;0.80;99.90;;;;;;5092037;28;20446;-84
2022/01/11 03:21:03;;;;;;;0.30;0.10;;;0.80;99.90;;;;;;5089767;28;20479;-84
2022/01/11 03:23:30;;;;;;;0.30;0.10;;;0.80;99.90;;;;;;5091591;28;20479;-87
2022/01/11 03:26:01;;;;;;;0.30;0.10;;;0.80;99.90;;;;;;5088944;28;20842;-86
2022/01/11 03:28:28;;;;;;;0.30;0.10;;;0.80;99.90;;;;;;5083649;28;20204;-87
2022/01/11 03:30:56;;;;;;;0.30;0.10;;;0.80;99.90;;;;;;5088024;28;20507;-85
2022/01/11 03:33:24;;;;;;;0.30;0.20;;;0.80;99.90;;;;;;5088955;28;20442;-84
2022/01/11 03:35:51;;;;;;;0.30;0.10;;;0.80;99.90;;;;;;5090620;28;20506;-85
2022/01/11 03:38:19;;;;;;;0.40;0.20;;;0.70;99.90;;;;;;5090828;28;20450;-85
2022/01/11 03:40:46;;;;;;;0.30;0.10;;;0.70;99.90;;;;;;5089282;28;20876;-85
2022/01/11 03:43:14;;;;;;;0.30;0.10;;;0.80;99.90;;;;;;5092591;28;20989;-86
2022/01/11 03:45:41;;;;;;;1.50;1.23;;;0.70;99.90;;;;;;5091047;28;20476;-85
2022/01/11 03:48:13;;;;;;;0.40;0.20;;;0.80;99.90;;;;;;5089138;28;20466;-87
2022/01/11 03:50:40;;;;;;;0.30;0.17;;;0.80;99.90;;;;;;5089860;28;20196;-85
2022/01/11 03:53:12;;;;;;;0.47;0.40;;;0.80;99.90;;;;;;5090500;28;20523;-85
2022/01/11 03:55:58;;;;;;;0.30;0.10;;;0.70;99.90;;;;;;5085876;28;20205;-85
2022/01/11 03:58:26;;;;;;;0.30;0.10;;;0.80;99.90;;;;;;5087518;28;20483;-84
2022/01/11 04:00:54;;;;;;;0.50;0.50;;;0.80;99.90;;;;;;5089799;28;20834;-86
2022/01/11 04:03:22;;;;;;;0.30;0.10;;;0.80;99.90;;;;;;5088727;28;20455;-84
2022/01/11 04:05:49;;;;;;;0.30;0.10;;;0.80;99.90;;;;;;5089187;28;20549;-85
2022/01/11 04:08:16;;;;;;;0.30;0.10;;;0.80;99.90;;;;;;5090044;28;20504;-84
2022/01/11 04:10:43;;;;;;;0.30;0.10;;;0.70;99.90;;;;;;5086767;28;20508;-84
2022/01/11 04:13:10;;;;;;;5.13;0.68;;;0.70;99.90;;;;;;5090162;28;20449;-85
2022/01/11 04:15:37;;;;;;;0.30;0.10;;;0.70;99.90;;;;;;5091169;28;20279;-86
2022/01/11 04:18:04;;;;;;;1.13;1.13;;;0.60;99.90;;;;;;5111467;28;20187;-84
2022/01/11 04:20:33;;;;;;;0.30;0.20;;;0.60;99.90;;;;;;5111214;28;20454;-82
2022/01/11 04:23:00;;;;;;;0.30;0.10;;;0.60;99.90;;;;;;5105773;28;20483;-82
2022/01/11 04:25:27;;;;;;;0.30;0.10;;;0.60;99.90;;;;;;5101277;28;20974;-84
2022/01/11 04:27:54;;;;;;;0.30;0.10;;;0.50;99.90;;;;;;5083379;28;21009;-84
2022/01/11 04:30:21;;;;;;;0.30;0.20;;;0.40;99.90;;;;;;5084591;28;20446;-84
2022/01/11 04:32:48;;;;;;;0.30;0.10;;;0.40;99.90;;;;;;5081723;28;20219;-84
2022/01/11 04:35:16;;;;;;;0.57;0.57;;;0.40;99.90;;;;;;5086081;28;20207;-85
2022/01/11 04:37:45;;;;;;;1.50;1.50;;;0.40;99.90;;;;;;5085003;28;20254;-83
2022/01/11 04:40:13;;;;;;;0.47;0.47;;;0.40;99.90;;;;;;5087358;28;20498;-82
2022/01/11 04:42:40;;;;;;;0.30;0.10;;;0.30;99.90;;;;;;5083729;28;20478;-83
2022/01/11 04:45:10;;;;;;;0.30;0.17;;;0.30;99.90;;;;;;5086012;28;20490;-85
2022/01/11 04:47:37;;;;;;;0.40;0.30;;;0.30;99.90;;;;;;5089132;28;20520;-85
2022/01/11 04:50:06;;;;;;;0.30;0.20;;;0.30;99.90;;;;;;5084587;28;20519;-86
2022/01/11 04:52:33;;;;;;;0.30;0.10;;;0.30;99.90;;;;;;5088997;28;20466;-87
2022/01/11 04:55:01;;;;;;;0.30;0.20;;;0.30;99.90;;;;;;5088086;28;20527;-85
2022/01/11 04:57:28;;;;;;;0.30;0.17;;;0.30;99.90;;;;;;5088988;28;20490;-85
2022/01/11 04:59:55;;;;;;;0.30;0.20;;;0.30;99.90;;;;;;5090720;28;20515;-85
2022/01/11 05:02:22;;;;;;;0.30;0.10;;;0.30;99.90;;;;;;5084672;28;20224;-85
2022/01/11 05:04:49;;;;;;;0.30;0.10;;;0.40;99.90;;;;;;5086572;28;20447;-84
2022/01/11 05:07:16;;;;;;;0.30;0.20;;;0.40;99.90;;;;;;5088273;28;20446;-83
2022/01/11 05:09:43;;;;;;;0.37;0.30;;;0.40;99.90;;;;;;5088910;28;21003;-84
2022/01/11 05:12:12;;;;;;;0.30;0.20;;;0.50;99.90;;;;;;5089979;28;20468;-84
2022/01/11 05:14:39;;;;;;;0.30;0.10;;;0.50;99.90;;;;;;5087861;28;20548;-83
2022/01/11 05:17:06;;;;;;;0.30;0.10;;;0.60;99.90;;;;;;5088770;28;20507;-83
2022/01/11 05:19:33;;;;;;;1.17;1.10;;;0.60;99.90;;;;;;5089995;28;20559;-83
2022/01/11 05:22:00;;;;;;;0.30;0.10;;;0.60;99.90;;;;;;5091097;28;20482;-83
2022/01/11 05:24:27;;;;;;;0.30;0.10;;;0.60;99.90;;;;;;5094703;28;20444;-85
2022/01/11 05:26:54;;;;;;;0.30;0.20;;;0.60;99.90;;;;;;5098487;28;21374;-84
2022/01/11 05:29:22;;;;;;;0.40;0.30;;;0.60;99.90;;;;;;5100321;28;20474;-83
2022/01/11 05:31:49;;;;;;;0.63;0.50;;;0.70;99.90;;;;;;5091633;28;20196;-86
2022/01/11 05:34:16;;;;;;;0.30;0.10;;;0.60;99.90;;;;;;5091251;28;20718;-82
2022/01/11 05:36:43;;;;;;;0.30;0.13;;;0.60;99.90;;;;;;5097768;28;20719;-82
2022/01/11 05:39:10;;;;;;;0.30;0.10;;;0.60;99.90;;;;;;5091548;28;20462;-83
2022/01/11 05:41:37;;;;;;;0.30;0.10;;;0.60;99.90;;;;;;5092293;28;20244;-83
2022/01/11 05:44:05;;;;;;;0.30;0.10;;;0.60;99.90;;;;;;5099453;28;20467;-83
2022/01/11 05:46:33;;;;;;;0.30;0.20;;;0.70;99.90;;;;;;5094657;28;20499;-84
2022/01/11 05:49:00;;;;;;;0.30;0.10;;;0.70;99.90;;;;;;5090885;28;20551;-83
2022/01/11 05:51:27;;;;;;;0.30;0.10;;;0.70;99.90;;;;;;5094586;28;20458;-83
2022/01/11 05:53:54;;;;;;;0.30;0.10;;;0.60;99.90;;;;;;5113123;28;20201;-83
2022/01/11 05:56:22;;;;;;;0.30;0.10;;;0.60;99.90;;;;;;5105918;28;20456;-84
2022/01/11 05:58:51;;;;;;;0.30;0.10;;;0.60;99.90;;;;;;5106664;28;20193;-84
2022/01/11 06:01:18;;;;;;;0.30;0.20;;;0.50;99.90;;;;;;5090634;28;20638;-87
2022/01/11 06:03:46;;;;;;;0.30;0.10;;;0.50;99.90;;;;;;5087170;28;20519;-84
2022/01/11 06:06:13;;;;;;;0.30;0.10;;;0.50;99.90;;;;;;5085329;28;20203;-85
2022/01/11 06:08:40;;;;;;;0.30;0.20;;;0.40;99.90;;;;;;5087544;28;20217;-85
2022/01/11 06:11:07;;;;;;;1.90;0.63;;;0.30;99.90;;;;;;5087965;28;20465;-85
2022/01/11 06:13:34;;;;;;;0.30;0.20;;;0.20;99.90;;;;;;5086690;28;20547;-84
2022/01/11 06:16:01;;;;;;;0.30;0.10;;;0.10;99.90;;;;;;5089558;28;20203;-85
2022/01/11 06:18:29;;;;;;;0.30;0.10;;;0.00;99.90;;;;;;5088228;28;20194;-86
2022/01/11 06:20:58;;;;;;;0.30;0.10;;;-0.10;99.90;;;;;;5088826;28;20894;-88
2022/01/11 06:23:25;;;;;;;0.30;0.20;;;-0.20;99.90;;;;;;5089818;28;20592;-84
2022/01/11 06:25:51;;;;;;;0.40;0.30;;;-0.40;99.90;;;;;;5088242;28;20691;-84
2022/01/11 06:28:18;;;;;;;0.30;0.15;;;-0.40;99.90;;;;;;5087107;28;20192;-84
2022/01/11 06:30:47;;;;;;;0.30;0.15;;;-0.50;99.90;;;;;;5084890;28;20247;-84
2022/01/11 06:33:14;;;;;;;0.88;0.63;;;-0.40;99.90;;;;;;5086326;28;20348;-84
2022/01/11 06:35:41;;;;;;;0.30;0.10;;;-0.40;99.90;;;;;;5086660;28;20651;-85
2022/01/11 06:38:09;;;;;;;0.30;0.10;;;-0.40;99.90;;;;;;5088390;28;20838;-84
2022/01/11 06:40:36;;;;;;;0.30;0.10;;;-0.30;99.90;;;;;;5090838;28;20539;-84
2022/01/11 06:43:04;;;;;;;0.30;0.10;;;-0.40;99.90;;;;;;5092365;28;20223;-85
2022/01/11 06:45:31;;;;;;;0.30;0.10;;;-0.30;99.90;;;;;;5090074;28;20480;-84
2022/01/11 06:47:59;;;;;;;0.30;0.10;;;-0.30;99.90;;;;;;5091194;28;20461;-87
2022/01/11 06:50:26;;;;;;;0.85;0.52;;;-0.20;99.90;;;;;;5090111;28;20208;-84
2022/01/11 06:52:54;;;;;;;0.30;0.10;;;-0.20;99.90;;;;;;5089243;28;20276;-86
2022/01/11 06:55:22;;;;;;;0.30;0.10;;;-0.10;99.90;;;;;;5092756;28;20196;-87
2022/01/11 06:57:49;;;;;;;0.30;0.10;;;-0.10;99.90;;;;;;5092458;28;20536;-83
2022/01/11 07:00:18;;;;;;;0.30;0.10;;;-0.10;99.90;;;;;;5091180;28;20461;-83
2022/01/11 07:02:46;;;;;;;0.30;0.10;;;0.00;99.90;;;;;;5092727;28;20277;-84
2022/01/11 07:05:14;;;;;;;0.30;0.10;;;0.00;99.90;;;;;;5091987;28;20649;-84
2022/01/11 07:07:41;;;;;;;0.30;0.10;;;0.00;99.90;;;;;;5089185;28;20462;-87
2022/01/11 07:10:08;;;;;;;0.30;0.10;;;0.10;99.90;;;;;;5091555;28;20202;-84
2022/01/11 07:12:37;;;;;;;0.30;0.10;;;0.10;99.90;;;;;;5089627;28;20252;-85
2022/01/11 07:15:04;;;;;;;0.30;0.10;;;0.10;99.90;;;;;;5091041;28;20200;-84
2022/01/11 07:17:31;;;;;;;0.30;0.10;;;0.10;99.90;;;;;;5090053;28;20199;-86
2022/01/11 07:19:58;;;;;;;0.30;0.20;;;0.10;99.90;;;;;;5090789;28;20203;-84
2022/01/11 07:22:25;;;;;;;0.30;0.10;;;0.10;99.90;;;;;;5091766;28;20230;-84
2022/01/11 07:24:52;;;;;;;2.15;0.55;;;0.10;99.90;;;;;;5092592;28;20196;-88
2022/01/11 07:27:19;;;;;;;0.30;0.20;;;0.10;99.90;;;;;;5117598;28;20183;-84
2022/01/11 07:29:47;;;;;;;0.30;0.20;;;0.10;99.90;;;;;;5113143;28;20195;-84
2022/01/11 07:32:14;;;;;;;0.30;0.10;;;0.10;99.90;;;;;;5107277;28;20639;-85
2022/01/11 07:34:42;;;;;;;0.85;0.85;;;0.10;99.90;;;;;;5101523;28;20203;-85
2022/01/11 07:37:09;;;;;;;0.30;0.10;;;0.00;99.90;;;;;;5093480;28;20277;-85
2022/01/11 07:39:36;;;;;;;0.30;0.10;;;0.00;99.90;;;;;;5092900;28;20494;-83
2022/01/11 07:42:04;;;;;;;5.80;1.13;;;0.00;99.90;;;;;;5091002;28;20204;-85
2022/01/11 07:44:30;;;;;;;0.30;0.10;;;-0.10;99.90;;;;;;5092381;28;21001;-85
2022/01/11 07:47:01;;;;;;;0.30;0.27;;;-0.10;99.90;;;;;;5092097;28;21083;-84
2022/01/11 07:49:28;;;;;;;0.30;0.10;;;-0.20;99.90;;;;;;5092099;28;20468;-84
2022/01/11 07:51:55;;;;;;;0.30;0.10;;;-0.30;99.90;;;;;;5074379;28;20857;-85
2022/01/11 07:54:22;;;;;;;0.60;0.30;;;-0.40;99.90;;;;;;5071868;28;20446;-86
2022/01/11 07:56:50;;;;;;;2.85;0.60;;;-0.40;99.90;;;;;;5071308;28;21002;-83
2022/01/11 07:59:17;;;;;;;0.30;0.10;;;-0.40;99.90;;;;;;5072027;28;20200;-83
2022/01/11 08:01:44;;;;;;;0.30;0.20;;;-0.50;99.90;;;;;;5071873;28;20467;-83
2022/01/11 08:04:12;;;;;;;0.93;0.90;;;-0.50;99.90;;;;;;5086933;28;20231;-86
2022/01/11 08:06:39;;;;;;;0.40;0.40;;;-0.50;99.90;;;;;;5091736;28;20273;-83
2022/01/11 08:09:08;;;;;;;0.85;0.85;;;-0.60;99.90;;;;;;5092530;28;20261;-84
2022/01/11 08:11:35;;;;;;;0.30;0.10;;;-0.50;99.90;;;;;;5082943;28;20201;-83
2022/01/11 08:14:02;;;;;;;0.30;0.10;;;-0.50;99.90;;;;;;5082771;28;20218;-84
2022/01/11 08:16:29;;;;;;;0.30;0.20;;;-0.50;99.90;;;;;;5085379;28;20466;-83
2022/01/11 08:18:56;;;;;;;0.30;0.10;;;-0.60;99.90;;;;;;5092118;28;20921;-83
2022/01/11 08:21:24;;;;;;;0.30;0.10;;;-0.60;99.90;;;;;;5075799;28;20205;-86
2022/01/11 08:23:51;;;;;;;0.30;0.20;;;-0.60;99.90;;;;;;5070834;28;20264;-82
2022/01/11 08:26:18;;;;;;;0.30;0.17;;;-0.60;99.90;;;;;;5071448;28;20206;-82
2022/01/11 08:28:45;;;;;;;0.40;0.30;;;-0.60;99.90;;;;;;5070914;28;20209;-84
2022/01/11 08:31:12;;;;;;;0.30;0.10;;;-0.60;99.90;;;;;;5070610;28;20439;-83
2022/01/11 08:33:39;;;;;;;0.30;0.10;;;-0.60;99.90;;;;;;5079252;28;20682;-84
2022/01/11 08:36:07;;;;;;;3.22;3.03;;;-0.50;99.90;;;;;;5075774;28;20446;-84
2022/01/11 08:38:36;;;;;;;0.30;0.10;;;-0.40;99.90;;;;;;5090455;28;20252;-85
2022/01/11 08:41:03;;;;;;;0.63;0.43;;;-0.40;99.90;;;;;;5090853;28;20204;-84
2022/01/11 08:43:30;;;;;;;0.30;0.20;;;-0.30;99.90;;;;;;5090022;28;20220;-82
2022/01/11 08:45:57;;;;;;;0.30;0.10;;;-0.20;99.90;;;;;;5091147;28;20200;-86
2022/01/11 08:48:25;;;;;;;0.43;0.43;;;-0.10;99.90;;;;;;5091115;28;20227;-86
2022/01/11 08:50:53;;;;;;;0.30;0.10;;;0.10;99.90;;;;;;5084264;28;20251;-87
2022/01/11 08:53:21;;;;;;;0.30;0.10;;;0.20;99.90;;;;;;5070241;28;20550;-88
2022/01/11 08:55:50;;;;;;;0.85;0.80;;;0.20;99.90;;;;;;5070654;28;20517;-85
2022/01/11 08:58:19;;;;;;;0.98;0.57;;;0.40;99.90;;;;;;5071385;28;20231;-87
2022/01/11 09:00:46;;;;;;;0.40;0.35;;;0.70;99.90;;;;;;5084650;28;20237;-85
2022/01/11 09:03:13;;;;;;;0.30;0.10;;;0.80;99.90;;;;;;5099409;28;20250;-86
2022/01/11 09:05:40;;;;;;;0.30;0.10;;;1.00;99.90;;;;;;5109139;28;20204;-86
2022/01/11 09:08:07;;;;;;;0.40;0.40;;;1.30;99.90;;;;;;5109810;28;20247;-86
2022/01/11 09:10:34;;;;;;;0.30;0.10;;;1.60;99.90;;;;;;5092910;28;20269;-87
2022/01/11 09:13:03;;;;;;;0.30;0.10;;;1.70;99.90;;;;;;5091018;28;20258;-85
2022/01/11 09:15:34;;;;;;;2.05;1.45;;;1.60;99.90;;;;;;5091636;28;20215;-87
2022/01/11 09:18:01;;;;;;;0.30;0.10;;;1.50;99.90;;;;;;5090173;28;20199;-89
2022/01/11 09:20:28;;;;;;;1.50;1.40;;;1.40;99.90;;;;;;5090877;28;20822;-88
2022/01/11 09:22:55;;;;;;;0.30;0.10;;;1.50;99.90;;;;;;5090699;28;20482;-87
2022/01/11 09:25:22;;;;;;;0.30;0.10;;;1.50;99.90;;;;;;5088975;28;21046;-88
2022/01/11 09:27:49;;;;;;;0.30;0.10;;;1.40;99.90;;;;;;5071681;28;20459;-88
2022/01/11 09:30:18;;;;;;;0.30;0.10;;;1.30;99.90;;;;;;5070809;28;20516;-90
2022/01/11 09:32:45;;;;;;;0.30;0.10;;;1.30;99.90;;;;;;5070496;28;20444;-87
2022/01/11 09:35:14;;;;;;;0.90;0.90;;;1.30;99.90;;;;;;5088906;28;20490;-86
2022/01/11 09:37:42;;;;;;;2.20;0.97;;;1.20;99.90;;;;;;5070403;28;20580;-87
2022/01/11 09:40:12;;;;;;;0.30;0.10;;;1.40;99.90;;;;;;5069598;28;20512;-93
2022/01/11 09:42:39;;;;;;;0.30;0.10;;;1.40;99.90;;;;;;5069559;28;20459;-87
2022/01/11 09:45:08;;;;;;;1.07;0.97;;;1.40;99.90;;;;;;5069942;28;20451;-89
2022/01/11 09:47:37;;;;;;;0.30;0.23;;;1.40;99.90;;;;;;5073038;28;20451;-86
2022/01/11 09:50:05;;;;;;;0.30;0.10;;;1.40;99.90;;;;;;5069326;28;20447;-90
2022/01/11 09:52:32;;;;;;;0.30;0.10;;;1.40;99.90;;;;;;5070161;28;20847;-85
2022/01/11 09:54:59;;;;;;;1.23;0.63;;;1.50;99.90;;;;;;5070075;28;20196;-87
2022/01/11 09:57:26;;;;;;;0.30;0.20;;;1.50;99.90;;;;;;5069807;28;20555;-88
2022/01/11 09:59:54;;;;;;;0.30;0.20;;;1.50;99.90;;;;;;5085094;28;20446;-89
2022/01/11 10:02:21;;;;;;;0.40;0.20;;;1.50;99.90;;;;;;5114180;28;20451;-90
2022/01/11 10:04:56;;;;;;;0.30;0.20;;;1.40;99.90;;;;;;5107470;28;20483;-90
2022/01/11 10:07:29;;;;;;;0.30;0.10;;;1.40;99.90;;;;;;5102066;28;20457;-88
2022/01/11 10:09:57;;;;;;;0.30;0.10;;;1.50;99.90;;;;;;5094504;28;20456;-89
2022/01/11 10:12:24;;;;;;;0.30;0.10;;;1.50;99.90;;;;;;5093729;28;20492;-90
2022/01/11 10:14:54;;;;;;;0.30;0.20;;;1.50;99.90;;;;;;5099750;28;20454;-89
2022/01/11 10:17:25;;;;;;;0.30;0.10;;;1.50;99.90;;;;;;5098366;28;20458;-89
2022/01/11 10:20:04;;;;;;;0.30;0.10;;;1.50;99.90;;;;;;5099862;28;20204;-91
2022/01/11 10:22:32;;;;;;;0.30;0.10;;;1.70;99.90;;;;;;5090788;28;20207;-92
2022/01/11 10:25:00;;;;;;;0.30;0.10;;;1.80;99.90;;;;;;5091418;28;20481;-89
2022/01/11 10:27:29;;;;;;;0.50;0.20;;;1.70;99.90;;;;;;5093168;28;20504;-91
2022/01/11 10:29:58;;;;;;;0.30;0.10;;;1.80;99.90;;;;;;5090066;28;20802;-90
2022/01/11 10:32:27;;;;;;;0.30;0.10;;;1.90;99.90;;;;;;5073735;28;20484;-92
2022/01/11 10:34:58;;;;;;;0.30;0.20;;;2.10;99.90;;;;;;5101315;28;20438;-90
2022/01/11 10:37:30;;;;;;;1.23;0.83;;;2.10;99.90;;;;;;5119247;28;20429;-89
2022/01/11 10:40:10;;;;;;;0.30;0.20;;;2.20;99.90;;;;;;5116352;28;20469;-89
2022/01/11 10:42:41;;;;;;;0.30;0.10;;;2.20;99.90;;;;;;5099557;28;20470;-90
2022/01/11 10:45:10;;;;;;;0.30;0.10;;;2.20;99.90;;;;;;5076798;28;20563;-90
2022/01/11 10:47:38;;;;;;;0.40;0.40;;;2.30;99.90;;;;;;5074831;28;20451;-89
2022/01/11 10:50:11;;;;;;;0.30;0.20;;;2.40;99.90;;;;;;5075100;28;20516;-89
2022/01/11 10:52:38;;;;;;;0.70;0.70;;;2.40;99.90;;;;;;5089094;28;20458;-89
2022/01/11 10:55:08;;;;;;;0.60;0.57;;;2.40;99.90;;;;;;5113621;28;20427;-87
2022/01/11 10:57:38;;;;;;;0.30;0.20;;;2.60;99.90;;;;;;5113932;28;20530;-89
2022/01/11 11:00:21;;;;;;;0.30;0.27;;;2.90;99.90;;;;;;5113907;28;20457;-88
2022/01/11 11:02:53;;;;;;;0.40;0.40;;;3.00;99.90;;;;;;5096195;28;20443;-90
2022/01/11 11:05:25;;;;;;;0.83;0.83;;;3.10;99.90;;;;;;5086115;28;20463;-90
2022/01/11 11:07:58;;;;;;;1.90;1.80;;;3.20;99.90;;;;;;5076339;28;20427;-90
2022/01/11 11:10:32;;;;;;;0.30;0.10;;;3.00;99.90;;;;;;5074391;28;20459;-89
2022/01/11 11:13:00;;;;;;;0.30;0.20;;;2.70;99.90;;;;;;5073681;28;20463;-90
2022/01/11 11:15:32;;;;;;;0.33;0.20;;;2.60;99.90;;;;;;5073650;28;20822;-89
2022/01/11 11:17:59;;;;;;;0.30;0.10;;;2.50;99.90;;;;;;5073601;28;20451;-90
2022/01/11 11:20:28;;;;;;;0.40;0.40;;;2.40;99.90;;;;;;5073964;28;20463;-93
2022/01/11 11:22:55;;;;;;;0.40;0.37;;;2.30;99.90;;;;;;5073770;28;20471;-89
2022/01/11 11:25:22;;;;;;;0.60;0.60;;;2.50;99.90;;;;;;5071770;28;20552;-89
2022/01/11 11:27:49;;;;;;;1.90;1.17;;;2.60;99.90;;;;;;5073287;28;20467;-89
2022/01/11 11:30:16;;;;;;;0.30;0.10;;;2.90;99.90;;;;;;5078660;28;20504;-90
2022/01/11 11:32:46;;;;;;;0.30;0.20;;;2.90;99.90;;;;;;5092290;28;20718;-90
2022/01/11 11:35:14;;;;;;;0.40;0.37;;;2.70;99.90;;;;;;5080930;28;20502;-93
2022/01/11 11:37:46;;;;;;;0.30;0.10;;;2.80;99.90;;;;;;5073941;28;20609;-91
2022/01/11 11:40:16;;;;;;;0.30;0.20;;;2.90;99.90;;;;;;5072923;28;20454;-90
2022/01/11 11:42:44;;;;;;;0.40;0.40;;;2.80;99.90;;;;;;5073365;28;20517;-92
2022/01/11 11:45:23;;;;;;;0.30;0.20;;;2.90;99.90;;;;;;5073431;28;20532;-91
2022/01/11 11:47:51;;;;;;;0.30;0.20;;;2.70;99.90;;;;;;5086475;28;20451;-90
2022/01/11 11:50:22;;;;;;;0.30;0.10;;;2.70;99.90;;;;;;5095448;28;20538;-89
2022/01/11 11:52:53;;;;;;;0.30;0.10;;;2.70;99.90;;;;;;5095948;28;20487;-88
2022/01/11 11:55:23;;;;;;;3.40;0.67;;;2.80;99.90;;;;;;5091034;28;20998;-89
2022/01/11 11:57:53;;;;;;;0.30;0.20;;;2.80;99.90;;;;;;5091527;28;20527;-92
2022/01/11 12:00:23;;;;;;;0.30;0.10;;;3.00;99.90;;;;;;5092963;28;20910;-92
2022/01/11 12:02:52;;;;;;;0.40;0.30;;;2.80;99.90;;;;;;5090032;28;20462;-90
2022/01/11 12:05:33;;;;;;;1.47;0.50;;;2.90;99.90;;;;;;5076493;28;20479;-88
2022/01/11 12:08:27;;;;;;;0.30;0.20;;;2.90;99.90;;;;;;5089585;28;20469;-91
2022/01/11 12:10:55;;;;;;;0.30;0.10;;;2.90;99.90;;;;;;5088239;28;20444;-92
2022/01/11 12:13:39;;;;;;;0.30;0.20;;;3.10;99.90;;;;;;5104648;28;20435;-88
2022/01/11 12:16:42;;;;;;;0.57;0.40;;;3.20;99.90;;;;;;5110636;28;20466;-89
2022/01/11 12:19:35;;;;;;;0.30;0.10;;;2.90;99.90;;;;;;5092447;28;20928;-89
2022/01/11 12:22:26;;;;;;;1.33;0.57;;;2.90;99.90;;;;;;5092646;28;20439;-90
2022/01/11 12:24:57;;;;;;;1.60;1.50;;;2.90;99.90;;;;;;5091947;28;20838;-89
2022/01/11 12:27:26;;;;;;;0.30;0.10;;;2.80;99.90;;;;;;5091910;28;20895;-89
2022/01/11 12:29:59;;;;;;;0.30;0.17;;;2.70;99.90;;;;;;5091517;28;20852;-91
2022/01/11 12:32:28;;;;;;;0.30;0.10;;;2.60;99.90;;;;;;5082738;28;20455;-91
2022/01/11 12:34:59;;;;;;;0.90;0.50;;;2.80;99.90;;;;;;5090446;28;20961;-89
2022/01/11 12:37:28;;;;;;;0.30;0.10;;;2.80;99.90;;;;;;5086991;28;22599;-90
2022/01/11 12:40:12;;;;;;;0.30;0.20;;;2.60;99.90;;;;;;5072047;28;20512;-89
2022/01/11 12:42:50;;;;;;;0.30;0.20;;;2.50;99.90;;;;;;5071742;28;20606;-92
2022/01/11 12:48:02;;;;;;;0.30;0.10;;;2.70;99.90;;;;;;5071375;28;20406;-88
2022/01/11 12:50:29;;;;;;;0.30;0.10;;;2.60;99.90;;;;;;5093035;28;20683;-90
2022/01/11 12:52:59;;;;;;;1.33;0.50;;;2.40;99.90;;;;;;5106401;28;20453;-89
2022/01/11 12:55:27;;;;;;;0.30;0.10;;;2.40;99.90;;;;;;5105606;28;20486;-88
2022/01/11 12:57:56;;;;;;;0.30;0.10;;;2.30;99.90;;;;;;5108351;28;20470;-87
2022/01/11 13:00:23;;;;;;;0.30;0.10;;;2.30;99.90;;;;;;5105468;28;20462;-88
2022/01/11 13:02:50;;;;;;;0.30;0.20;;;2.10;99.90;;;;;;5107503;28;20455;-88
2022/01/11 13:05:21;;;;;;;0.30;0.10;;;1.90;99.90;;;;;;5104559;28;20481;-91